sensor_id;sensor_type;location;lat;lon;timestamp;temperature;humidity
81315;DHT22;72214;52.510;5.718;2023-11-22T00:01:48;6.20;82.30
81315;DHT22;72214;52.510;5.718;2023-11-22T00:04:17;6.20;82.20
81315;DHT22;72214;52.510;5.718;2023-11-22T00:06:46;6.10;82.20
81315;DHT22;72214;52.510;5.718;2023-11-22T00:09:17;6.10;82.20
81315;DHT22;72214;52.510;5.718;2023-11-22T00:11:51;6.10;82.20
81315;DHT22;72214;52.510;5.718;2023-11-22T00:14:20;6.10;82.10
81315;DHT22;72214;52.510;5.718;2023-11-22T00:16:50;6.10;82.10
81315;DHT22;72214;52.510;5.718;2023-11-22T00:19:19;6.10;82.10
81315;DHT22;72214;52.510;5.718;2023-11-22T00:21:49;6.00;82.10
81315;DHT22;72214;52.510;5.718;2023-11-22T00:24:18;6.00;82.10
81315;DHT22;72214;52.510;5.718;2023-11-22T00:26:47;6.00;82.10
81315;DHT22;72214;52.510;5.718;2023-11-22T00:29:19;6.00;82.20
81315;DHT22;72214;52.510;5.718;2023-11-22T00:31:49;6.00;82.20
81315;DHT22;72214;52.510;5.718;2023-11-22T00:34:18;6.00;82.10
81315;DHT22;72214;52.510;5.718;2023-11-22T00:36:49;5.90;82.10
81315;DHT22;72214;52.510;5.718;2023-11-22T00:39:19;5.90;82.10
81315;DHT22;72214;52.510;5.718;2023-11-22T00:41:48;5.90;82.10
81315;DHT22;72214;52.510;5.718;2023-11-22T00:44:20;5.90;82.10
81315;DHT22;72214;52.510;5.718;2023-11-22T00:46:49;5.90;82.10
81315;DHT22;72214;52.510;5.718;2023-11-22T00:49:18;5.90;82.10
81315;DHT22;72214;52.510;5.718;2023-11-22T00:51:47;5.80;82.10
81315;DHT22;72214;52.510;5.718;2023-11-22T00:54:17;5.80;82.10
81315;DHT22;72214;52.510;5.718;2023-11-22T00:56:46;5.80;82.20
81315;DHT22;72214;52.510;5.718;2023-11-22T00:59:15;5.80;82.10
81315;DHT22;72214;52.510;5.718;2023-11-22T01:01:48;5.80;82.10
81315;DHT22;72214;52.510;5.718;2023-11-22T01:04:17;5.70;82.10
81315;DHT22;72214;52.510;5.718;2023-11-22T01:06:46;5.70;82.10
81315;DHT22;72214;52.510;5.718;2023-11-22T01:09:15;5.70;82.10
81315;DHT22;72214;52.510;5.718;2023-11-22T01:11:44;5.70;82.10
81315;DHT22;72214;52.510;5.718;2023-11-22T01:14:14;5.70;82.10
81315;DHT22;72214;52.510;5.718;2023-11-22T01:16:43;5.70;82.10
81315;DHT22;72214;52.510;5.718;2023-11-22T01:19:15;5.60;82.10
81315;DHT22;72214;52.510;5.718;2023-11-22T01:21:44;5.60;82.00
81315;DHT22;72214;52.510;5.718;2023-11-22T01:24:14;5.50;82.10
81315;DHT22;72214;52.510;5.718;2023-11-22T01:26:43;5.50;82.20
81315;DHT22;72214;52.510;5.718;2023-11-22T01:29:12;5.40;82.20
81315;DHT22;72214;52.510;5.718;2023-11-22T01:31:41;5.40;82.30
81315;DHT22;72214;52.510;5.718;2023-11-22T01:34:16;5.40;82.30
81315;DHT22;72214;52.510;5.718;2023-11-22T01:36:45;5.40;82.20
81315;DHT22;72214;52.510;5.718;2023-11-22T01:39:14;5.30;82.30
81315;DHT22;72214;52.510;5.718;2023-11-22T01:41:44;5.30;82.20
81315;DHT22;72214;52.510;5.718;2023-11-22T01:44:15;5.30;82.10
81315;DHT22;72214;52.510;5.718;2023-11-22T01:46:47;5.30;82.10
81315;DHT22;72214;52.510;5.718;2023-11-22T01:49:19;5.30;82.10
81315;DHT22;72214;52.510;5.718;2023-11-22T01:51:50;5.30;81.90
81315;DHT22;72214;52.510;5.718;2023-11-22T01:54:20;5.30;81.90
81315;DHT22;72214;52.510;5.718;2023-11-22T01:56:51;5.30;81.90
81315;DHT22;72214;52.510;5.718;2023-11-22T01:59:20;5.20;82.00
81315;DHT22;72214;52.510;5.718;2023-11-22T02:01:53;5.30;82.00
81315;DHT22;72214;52.510;5.718;2023-11-22T02:04:25;5.30;82.00
81315;DHT22;72214;52.510;5.718;2023-11-22T02:06:54;5.20;81.90
81315;DHT22;72214;52.510;5.718;2023-11-22T02:09:23;5.20;81.90
81315;DHT22;72214;52.510;5.718;2023-11-22T02:11:52;5.10;81.80
81315;DHT22;72214;52.510;5.718;2023-11-22T02:14:22;5.20;81.80
81315;DHT22;72214;52.510;5.718;2023-11-22T02:16:51;5.10;81.80
81315;DHT22;72214;52.510;5.718;2023-11-22T02:19:20;5.10;81.80
81315;DHT22;72214;52.510;5.718;2023-11-22T02:21:52;5.10;81.80
81315;DHT22;72214;52.510;5.718;2023-11-22T02:24:24;5.10;81.80
81315;DHT22;72214;52.510;5.718;2023-11-22T02:26:53;5.10;81.80
81315;DHT22;72214;52.510;5.718;2023-11-22T02:29:22;5.00;81.70
81315;DHT22;72214;52.510;5.718;2023-11-22T02:31:51;5.00;81.70
81315;DHT22;72214;52.510;5.718;2023-11-22T02:34:20;5.00;81.70
81315;DHT22;72214;52.510;5.718;2023-11-22T02:36:50;5.00;81.80
81315;DHT22;72214;52.510;5.718;2023-11-22T02:39:19;5.00;81.70
81315;DHT22;72214;52.510;5.718;2023-11-22T02:41:51;4.90;81.70
81315;DHT22;72214;52.510;5.718;2023-11-22T02:44:20;4.90;81.70
81315;DHT22;72214;52.510;5.718;2023-11-22T02:46:49;4.90;81.70
81315;DHT22;72214;52.510;5.718;2023-11-22T02:49:19;4.90;81.60
81315;DHT22;72214;52.510;5.718;2023-11-22T02:51:48;4.80;81.60
81315;DHT22;72214;52.510;5.718;2023-11-22T02:54:17;4.70;81.60
81315;DHT22;72214;52.510;5.718;2023-11-22T02:56:46;4.70;81.60
81315;DHT22;72214;52.510;5.718;2023-11-22T02:59:18;4.70;81.60
81315;DHT22;72214;52.510;5.718;2023-11-22T03:01:47;4.70;81.60
81315;DHT22;72214;52.510;5.718;2023-11-22T03:04:17;4.70;81.60
81315;DHT22;72214;52.510;5.718;2023-11-22T03:06:46;4.60;81.50
81315;DHT22;72214;52.510;5.718;2023-11-22T03:09:15;4.60;81.50
81315;DHT22;72214;52.510;5.718;2023-11-22T03:11:45;4.50;81.50
81315;DHT22;72214;52.510;5.718;2023-11-22T03:14:14;4.50;81.50
81315;DHT22;72214;52.510;5.718;2023-11-22T03:16:46;4.50;81.50
81315;DHT22;72214;52.510;5.718;2023-11-22T03:19:15;4.50;81.50
81315;DHT22;72214;52.510;5.718;2023-11-22T03:21:45;4.40;81.50
81315;DHT22;72214;52.510;5.718;2023-11-22T03:24:15;4.40;81.50
81315;DHT22;72214;52.510;5.718;2023-11-22T03:26:44;4.40;81.50
81315;DHT22;72214;52.510;5.718;2023-11-22T03:29:14;4.30;81.50
81315;DHT22;72214;52.510;5.718;2023-11-22T03:31:47;4.30;81.50
81315;DHT22;72214;52.510;5.718;2023-11-22T03:34:18;4.30;81.40
81315;DHT22;72214;52.510;5.718;2023-11-22T03:36:48;4.30;81.40
81315;DHT22;72214;52.510;5.718;2023-11-22T03:39:18;4.20;81.40
81315;DHT22;72214;52.510;5.718;2023-11-22T03:41:48;4.20;81.40
81315;DHT22;72214;52.510;5.718;2023-11-22T03:44:17;4.20;81.40
81315;DHT22;72214;52.510;5.718;2023-11-22T03:46:49;4.20;81.40
81315;DHT22;72214;52.510;5.718;2023-11-22T03:49:18;4.20;81.30
81315;DHT22;72214;52.510;5.718;2023-11-22T03:51:48;4.20;81.40
81315;DHT22;72214;52.510;5.718;2023-11-22T03:54:17;4.20;81.30
81315;DHT22;72214;52.510;5.718;2023-11-22T03:56:46;4.10;81.40
81315;DHT22;72214;52.510;5.718;2023-11-22T03:59:15;4.10;81.40
81315;DHT22;72214;52.510;5.718;2023-11-22T04:01:44;4.10;81.40
81315;DHT22;72214;52.510;5.718;2023-11-22T04:04:16;4.10;81.30
81315;DHT22;72214;52.510;5.718;2023-11-22T04:06:45;4.10;81.30
81315;DHT22;72214;52.510;5.718;2023-11-22T04:09:14;4.10;81.20
81315;DHT22;72214;52.510;5.718;2023-11-22T04:11:44;4.10;81.20
81315;DHT22;72214;52.510;5.718;2023-11-22T04:14:13;4.10;81.20
81315;DHT22;72214;52.510;5.718;2023-11-22T04:16:42;4.00;81.20
81315;DHT22;72214;52.510;5.718;2023-11-22T04:19:12;4.00;81.20
81315;DHT22;72214;52.510;5.718;2023-11-22T04:21:43;4.00;81.20
81315;DHT22;72214;52.510;5.718;2023-11-22T04:24:12;4.00;81.20
81315;DHT22;72214;52.510;5.718;2023-11-22T04:26:42;4.00;81.20
81315;DHT22;72214;52.510;5.718;2023-11-22T04:29:11;3.90;81.10
81315;DHT22;72214;52.510;5.718;2023-11-22T04:31:40;3.90;81.10
81315;DHT22;72214;52.510;5.718;2023-11-22T04:34:10;3.90;81.10
81315;DHT22;72214;52.510;5.718;2023-11-22T04:36:39;3.90;81.10
81315;DHT22;72214;52.510;5.718;2023-11-22T04:39:10;3.90;81.10
81315;DHT22;72214;52.510;5.718;2023-11-22T04:41:40;3.80;81.00
81315;DHT22;72214;52.510;5.718;2023-11-22T04:44:09;3.80;81.10
81315;DHT22;72214;52.510;5.718;2023-11-22T04:46:38;3.70;81.00
81315;DHT22;72214;52.510;5.718;2023-11-22T04:49:07;3.70;81.10
81315;DHT22;72214;52.510;5.718;2023-11-22T04:51:36;3.70;81.00
81315;DHT22;72214;52.510;5.718;2023-11-22T04:54:06;3.70;81.00
81315;DHT22;72214;52.510;5.718;2023-11-22T04:56:37;3.60;81.00
81315;DHT22;72214;52.510;5.718;2023-11-22T04:59:07;3.60;81.00
81315;DHT22;72214;52.510;5.718;2023-11-22T05:01:36;3.60;81.00
81315;DHT22;72214;52.510;5.718;2023-11-22T05:04:05;3.60;81.00
81315;DHT22;72214;52.510;5.718;2023-11-22T05:06:36;3.60;81.10
81315;DHT22;72214;52.510;5.718;2023-11-22T05:09:05;3.60;81.00
81315;DHT22;72214;52.510;5.718;2023-11-22T05:11:38;3.50;81.00
81315;DHT22;72214;52.510;5.718;2023-11-22T05:14:09;3.50;81.10
81315;DHT22;72214;52.510;5.718;2023-11-22T05:16:39;3.50;81.10
81315;DHT22;72214;52.510;5.718;2023-11-22T05:19:08;3.50;81.10
81315;DHT22;72214;52.510;5.718;2023-11-22T05:21:37;3.50;81.00
81315;DHT22;72214;52.510;5.718;2023-11-22T05:24:07;3.50;81.00
81315;DHT22;72214;52.510;5.718;2023-11-22T05:26:39;3.50;81.00
81315;DHT22;72214;52.510;5.718;2023-11-22T05:29:08;3.50;81.00
81315;DHT22;72214;52.510;5.718;2023-11-22T05:31:38;3.60;80.90
81315;DHT22;72214;52.510;5.718;2023-11-22T05:34:07;3.60;81.00
81315;DHT22;72214;52.510;5.718;2023-11-22T05:36:36;3.60;80.90
81315;DHT22;72214;52.510;5.718;2023-11-22T05:39:06;3.60;80.90
81315;DHT22;72214;52.510;5.718;2023-11-22T05:41:35;3.60;80.90
81315;DHT22;72214;52.510;5.718;2023-11-22T05:44:07;3.60;80.90
81315;DHT22;72214;52.510;5.718;2023-11-22T05:46:36;3.60;80.90
81315;DHT22;72214;52.510;5.718;2023-11-22T05:49:05;3.60;80.90
81315;DHT22;72214;52.510;5.718;2023-11-22T05:51:36;3.60;80.90
81315;DHT22;72214;52.510;5.718;2023-11-22T05:54:06;3.60;80.80
81315;DHT22;72214;52.510;5.718;2023-11-22T05:56:38;3.60;80.90
81315;DHT22;72214;52.510;5.718;2023-11-22T05:59:09;3.60;80.90
81315;DHT22;72214;52.510;5.718;2023-11-22T06:01:39;3.70;80.90
81315;DHT22;72214;52.510;5.718;2023-11-22T06:04:08;3.70;80.90
81315;DHT22;72214;52.510;5.718;2023-11-22T06:06:38;3.70;80.90
81315;DHT22;72214;52.510;5.718;2023-11-22T06:09:07;3.70;80.90
81315;DHT22;72214;52.510;5.718;2023-11-22T06:11:40;3.70;80.90
81315;DHT22;72214;52.510;5.718;2023-11-22T06:14:12;3.70;80.90
81315;DHT22;72214;52.510;5.718;2023-11-22T06:16:41;3.70;81.00
81315;DHT22;72214;52.510;5.718;2023-11-22T06:19:10;3.70;80.90
81315;DHT22;72214;52.510;5.718;2023-11-22T06:21:39;3.70;80.90
81315;DHT22;72214;52.510;5.718;2023-11-22T06:24:08;3.70;81.00
81315;DHT22;72214;52.510;5.718;2023-11-22T06:26:42;3.70;81.00
81315;DHT22;72214;52.510;5.718;2023-11-22T06:29:14;3.70;81.00
81315;DHT22;72214;52.510;5.718;2023-11-22T06:31:44;3.70;81.00
81315;DHT22;72214;52.510;5.718;2023-11-22T06:34:13;3.70;81.10
81315;DHT22;72214;52.510;5.718;2023-11-22T06:36:42;3.70;81.00
81315;DHT22;72214;52.510;5.718;2023-11-22T06:39:11;3.80;81.10
81315;DHT22;72214;52.510;5.718;2023-11-22T06:41:41;3.80;81.10
81315;DHT22;72214;52.510;5.718;2023-11-22T06:44:10;3.80;81.00
81315;DHT22;72214;52.510;5.718;2023-11-22T06:46:42;3.70;81.10
81315;DHT22;72214;52.510;5.718;2023-11-22T06:49:11;3.70;81.20
81315;DHT22;72214;52.510;5.718;2023-11-22T06:51:40;3.70;81.20
81315;DHT22;72214;52.510;5.718;2023-11-22T06:54:09;3.70;81.20
81315;DHT22;72214;52.510;5.718;2023-11-22T06:56:39;3.70;81.30
81315;DHT22;72214;52.510;5.718;2023-11-22T06:59:08;3.70;81.20
81315;DHT22;72214;52.510;5.718;2023-11-22T07:01:37;3.70;81.20
81315;DHT22;72214;52.510;5.718;2023-11-22T07:04:09;3.70;81.20
81315;DHT22;72214;52.510;5.718;2023-11-22T07:06:38;3.70;81.20
81315;DHT22;72214;52.510;5.718;2023-11-22T07:09:09;3.70;81.30
81315;DHT22;72214;52.510;5.718;2023-11-22T07:11:39;3.70;81.30
81315;DHT22;72214;52.510;5.718;2023-11-22T07:14:10;3.70;81.20
81315;DHT22;72214;52.510;5.718;2023-11-22T07:16:40;3.70;81.20
81315;DHT22;72214;52.510;5.718;2023-11-22T07:19:12;3.70;81.20
81315;DHT22;72214;52.510;5.718;2023-11-22T07:21:41;3.70;81.30
81315;DHT22;72214;52.510;5.718;2023-11-22T07:24:10;3.70;81.20
81315;DHT22;72214;52.510;5.718;2023-11-22T07:26:41;3.70;81.20
81315;DHT22;72214;52.510;5.718;2023-11-22T07:29:11;3.70;81.20
81315;DHT22;72214;52.510;5.718;2023-11-22T07:31:40;3.70;81.20
81315;DHT22;72214;52.510;5.718;2023-11-22T07:34:13;3.70;81.20
81315;DHT22;72214;52.510;5.718;2023-11-22T07:36:44;3.70;81.20
81315;DHT22;72214;52.510;5.718;2023-11-22T07:39:14;3.70;81.20
81315;DHT22;72214;52.510;5.718;2023-11-22T07:41:45;3.70;81.20
81315;DHT22;72214;52.510;5.718;2023-11-22T07:44:15;3.70;81.20
81315;DHT22;72214;52.510;5.718;2023-11-22T07:46:44;3.70;81.20
81315;DHT22;72214;52.510;5.718;2023-11-22T07:49:16;3.70;81.20
81315;DHT22;72214;52.510;5.718;2023-11-22T07:51:45;3.80;81.20
81315;DHT22;72214;52.510;5.718;2023-11-22T07:54:18;3.70;81.20
81315;DHT22;72214;52.510;5.718;2023-11-22T07:56:48;3.80;81.20
81315;DHT22;72214;52.510;5.718;2023-11-22T07:59:18;3.80;81.20
81315;DHT22;72214;52.510;5.718;2023-11-22T08:01:47;3.80;81.20
81315;DHT22;72214;52.510;5.718;2023-11-22T08:04:21;3.90;81.20
81315;DHT22;72214;52.510;5.718;2023-11-22T08:06:51;3.90;81.20
81315;DHT22;72214;52.510;5.718;2023-11-22T08:09:23;3.90;81.20
81315;DHT22;72214;52.510;5.718;2023-11-22T08:11:52;3.90;81.20
81315;DHT22;72214;52.510;5.718;2023-11-22T08:14:22;3.90;81.20
81315;DHT22;72214;52.510;5.718;2023-11-22T08:16:53;3.90;81.20
81315;DHT22;72214;52.510;5.718;2023-11-22T08:19:25;3.90;81.20
81315;DHT22;72214;52.510;5.718;2023-11-22T08:21:55;3.90;81.20
81315;DHT22;72214;52.510;5.718;2023-11-22T08:24:24;4.00;81.20
81315;DHT22;72214;52.510;5.718;2023-11-22T08:26:53;4.00;81.20
81315;DHT22;72214;52.510;5.718;2023-11-22T08:29:22;4.00;81.20
81315;DHT22;72214;52.510;5.718;2023-11-22T08:31:51;4.00;81.20
81315;DHT22;72214;52.510;5.718;2023-11-22T08:34:20;4.00;81.20
81315;DHT22;72214;52.510;5.718;2023-11-22T08:36:52;4.00;81.20
81315;DHT22;72214;52.510;5.718;2023-11-22T08:39:21;4.00;81.20
81315;DHT22;72214;52.510;5.718;2023-11-22T08:41:50;4.00;81.30
81315;DHT22;72214;52.510;5.718;2023-11-22T08:44:19;4.00;81.20
81315;DHT22;72214;52.510;5.718;2023-11-22T08:46:49;4.10;81.20
81315;DHT22;72214;52.510;5.718;2023-11-22T08:49:19;4.10;81.20
81315;DHT22;72214;52.510;5.718;2023-11-22T08:51:48;4.10;81.20
81315;DHT22;72214;52.510;5.718;2023-11-22T08:54:20;4.10;81.20
81315;DHT22;72214;52.510;5.718;2023-11-22T08:56:49;4.10;81.30
81315;DHT22;72214;52.510;5.718;2023-11-22T08:59:18;4.10;81.20
81315;DHT22;72214;52.510;5.718;2023-11-22T09:01:47;4.10;81.20
81315;DHT22;72214;52.510;5.718;2023-11-22T09:04:16;4.10;81.20
81315;DHT22;72214;52.510;5.718;2023-11-22T09:06:46;4.10;81.30
81315;DHT22;72214;52.510;5.718;2023-11-22T09:09:15;4.20;81.30
81315;DHT22;72214;52.510;5.718;2023-11-22T09:11:48;4.20;81.30
81315;DHT22;72214;52.510;5.718;2023-11-22T09:14:17;4.20;81.30
81315;DHT22;72214;52.510;5.718;2023-11-22T09:16:46;4.20;81.40
81315;DHT22;72214;52.510;5.718;2023-11-22T09:19:20;4.20;81.30
81315;DHT22;72214;52.510;5.718;2023-11-22T09:21:49;4.30;81.30
81315;DHT22;72214;52.510;5.718;2023-11-22T09:24:19;4.30;81.20
81315;DHT22;72214;52.510;5.718;2023-11-22T09:26:50;4.40;81.20
81315;DHT22;72214;52.510;5.718;2023-11-22T09:29:19;4.40;81.20
81315;DHT22;72214;52.510;5.718;2023-11-22T09:31:49;4.40;81.30
81315;DHT22;72214;52.510;5.718;2023-11-22T09:34:18;4.40;81.20
81315;DHT22;72214;52.510;5.718;2023-11-22T09:36:48;4.40;81.30
81315;DHT22;72214;52.510;5.718;2023-11-22T09:39:17;4.40;81.20
81315;DHT22;72214;52.510;5.718;2023-11-22T09:41:50;4.40;81.20
81315;DHT22;72214;52.510;5.718;2023-11-22T09:44:20;4.50;81.20
81315;DHT22;72214;52.510;5.718;2023-11-22T09:46:49;4.50;81.30
81315;DHT22;72214;52.510;5.718;2023-11-22T09:49:22;4.50;81.30
81315;DHT22;72214;52.510;5.718;2023-11-22T09:51:54;4.60;81.20
81315;DHT22;72214;52.510;5.718;2023-11-22T09:54:25;4.60;81.20
81315;DHT22;72214;52.510;5.718;2023-11-22T09:57:00;4.60;81.30
81315;DHT22;72214;52.510;5.718;2023-11-22T09:59:35;4.70;81.20
81315;DHT22;72214;52.510;5.718;2023-11-22T10:02:06;4.60;81.20
81315;DHT22;72214;52.510;5.718;2023-11-22T10:04:35;4.60;81.20
81315;DHT22;72214;52.510;5.718;2023-11-22T10:07:05;4.60;81.30
81315;DHT22;72214;52.510;5.718;2023-11-22T10:09:35;4.70;81.40
81315;DHT22;72214;52.510;5.718;2023-11-22T10:12:07;4.70;81.30
81315;DHT22;72214;52.510;5.718;2023-11-22T10:14:36;4.70;81.30
81315;DHT22;72214;52.510;5.718;2023-11-22T10:17:05;4.80;81.30
81315;DHT22;72214;52.510;5.718;2023-11-22T10:19:36;4.90;81.30
81315;DHT22;72214;52.510;5.718;2023-11-22T10:22:06;4.90;81.20
81315;DHT22;72214;52.510;5.718;2023-11-22T10:24:36;5.00;81.20
81315;DHT22;72214;52.510;5.718;2023-11-22T10:27:11;5.00;81.20
81315;DHT22;72214;52.510;5.718;2023-11-22T10:29:40;5.00;81.20
81315;DHT22;72214;52.510;5.718;2023-11-22T10:32:10;5.00;81.20
81315;DHT22;72214;52.510;5.718;2023-11-22T10:34:39;5.10;81.20
81315;DHT22;72214;52.510;5.718;2023-11-22T10:37:09;5.10;81.20
81315;DHT22;72214;52.510;5.718;2023-11-22T10:39:38;5.10;81.10
81315;DHT22;72214;52.510;5.718;2023-11-22T10:42:11;5.20;81.10
81315;DHT22;72214;52.510;5.718;2023-11-22T10:44:41;5.20;81.10
81315;DHT22;72214;52.510;5.718;2023-11-22T10:47:13;5.20;81.20
81315;DHT22;72214;52.510;5.718;2023-11-22T10:49:45;5.20;81.10
81315;DHT22;72214;52.510;5.718;2023-11-22T10:52:14;5.20;81.20
81315;DHT22;72214;52.510;5.718;2023-11-22T10:54:49;5.30;81.20
81315;DHT22;72214;52.510;5.718;2023-11-22T10:57:23;5.30;81.20
81315;DHT22;72214;52.510;5.718;2023-11-22T10:59:55;5.30;81.20
81315;DHT22;72214;52.510;5.718;2023-11-22T11:02:28;5.30;81.20
81315;DHT22;72214;52.510;5.718;2023-11-22T11:05:03;5.40;81.10
81315;DHT22;72214;52.510;5.718;2023-11-22T11:07:40;5.50;81.10
81315;DHT22;72214;52.510;5.718;2023-11-22T11:10:12;5.50;81.10
81315;DHT22;72214;52.510;5.718;2023-11-22T11:12:45;5.50;81.10
81315;DHT22;72214;52.510;5.718;2023-11-22T11:15:15;5.50;81.10
81315;DHT22;72214;52.510;5.718;2023-11-22T11:17:47;5.50;81.00
81315;DHT22;72214;52.510;5.718;2023-11-22T11:20:18;5.50;81.00
81315;DHT22;72214;52.510;5.718;2023-11-22T11:22:48;5.60;81.00
81315;DHT22;72214;52.510;5.718;2023-11-22T11:25:18;5.60;81.00
81315;DHT22;72214;52.510;5.718;2023-11-22T11:27:58;5.60;81.00
81315;DHT22;72214;52.510;5.718;2023-11-22T11:30:43;5.60;81.00
81315;DHT22;72214;52.510;5.718;2023-11-22T11:33:13;5.60;81.10
81315;DHT22;72214;52.510;5.718;2023-11-22T11:35:44;5.60;81.00
81315;DHT22;72214;52.510;5.718;2023-11-22T11:38:16;5.60;81.00
81315;DHT22;72214;52.510;5.718;2023-11-22T11:40:48;5.70;81.00
81315;DHT22;72214;52.510;5.718;2023-11-22T11:43:39;5.70;81.00
81315;DHT22;72214;52.510;5.718;2023-11-22T11:46:09;5.70;81.10
81315;DHT22;72214;52.510;5.718;2023-11-22T11:48:42;5.70;81.00
81315;DHT22;72214;52.510;5.718;2023-11-22T11:51:16;5.80;81.00
81315;DHT22;72214;52.510;5.718;2023-11-22T11:53:48;5.80;80.90
81315;DHT22;72214;52.510;5.718;2023-11-22T11:56:18;5.80;80.90
81315;DHT22;72214;52.510;5.718;2023-11-22T11:58:50;5.90;80.90
81315;DHT22;72214;52.510;5.718;2023-11-22T12:01:19;6.00;80.80
81315;DHT22;72214;52.510;5.718;2023-11-22T12:03:49;6.00;80.80
81315;DHT22;72214;52.510;5.718;2023-11-22T12:06:18;6.00;80.80
81315;DHT22;72214;52.510;5.718;2023-11-22T12:08:48;6.10;80.80
81315;DHT22;72214;52.510;5.718;2023-11-22T12:11:17;6.10;80.80
81315;DHT22;72214;52.510;5.718;2023-11-22T12:13:49;6.20;80.80
81315;DHT22;72214;52.510;5.718;2023-11-22T12:16:19;6.20;80.70
81315;DHT22;72214;52.510;5.718;2023-11-22T12:18:49;6.20;80.70
81315;DHT22;72214;52.510;5.718;2023-11-22T12:21:19;6.30;80.70
81315;DHT22;72214;52.510;5.718;2023-11-22T12:23:48;6.30;80.70
81315;DHT22;72214;52.510;5.718;2023-11-22T12:26:19;6.30;80.70
81315;DHT22;72214;52.510;5.718;2023-11-22T12:28:51;6.40;80.70
81315;DHT22;72214;52.510;5.718;2023-11-22T12:31:20;6.40;80.70
81315;DHT22;72214;52.510;5.718;2023-11-22T12:33:50;6.40;80.70
81315;DHT22;72214;52.510;5.718;2023-11-22T12:36:20;6.40;80.70
81315;DHT22;72214;52.510;5.718;2023-11-22T12:38:49;6.40;80.70
81315;DHT22;72214;52.510;5.718;2023-11-22T12:41:20;6.40;80.70
81315;DHT22;72214;52.510;5.718;2023-11-22T12:44:04;6.40;80.70
81315;DHT22;72214;52.510;5.718;2023-11-22T12:46:47;6.40;80.60
81315;DHT22;72214;52.510;5.718;2023-11-22T12:49:22;6.40;80.60
81315;DHT22;72214;52.510;5.718;2023-11-22T12:51:51;6.40;80.60
81315;DHT22;72214;52.510;5.718;2023-11-22T12:54:21;6.40;80.50
81315;DHT22;72214;52.510;5.718;2023-11-22T12:56:50;6.40;80.50
81315;DHT22;72214;52.510;5.718;2023-11-22T12:59:26;6.40;80.50
81315;DHT22;72214;52.510;5.718;2023-11-22T13:01:56;6.40;80.50
81315;DHT22;72214;52.510;5.718;2023-11-22T13:04:26;6.40;80.50
81315;DHT22;72214;52.510;5.718;2023-11-22T13:06:56;6.40;80.50
81315;DHT22;72214;52.510;5.718;2023-11-22T13:09:26;6.40;80.50
81315;DHT22;72214;52.510;5.718;2023-11-22T13:11:55;6.40;80.50
81315;DHT22;72214;52.510;5.718;2023-11-22T13:14:27;6.40;80.50
81315;DHT22;72214;52.510;5.718;2023-11-22T13:17:04;6.40;80.50
81315;DHT22;72214;52.510;5.718;2023-11-22T13:19:37;6.40;80.40
81315;DHT22;72214;52.510;5.718;2023-11-22T13:22:10;6.40;80.50
81315;DHT22;72214;52.510;5.718;2023-11-22T13:24:39;6.40;80.50
81315;DHT22;72214;52.510;5.718;2023-11-22T13:27:09;6.40;80.50
81315;DHT22;72214;52.510;5.718;2023-11-22T13:29:41;6.40;80.40
81315;DHT22;72214;52.510;5.718;2023-11-22T13:32:10;6.40;80.30
81315;DHT22;72214;52.510;5.718;2023-11-22T13:34:39;6.40;80.40
81315;DHT22;72214;52.510;5.718;2023-11-22T13:37:09;6.40;80.40
81315;DHT22;72214;52.510;5.718;2023-11-22T13:39:38;6.40;80.30
81315;DHT22;72214;52.510;5.718;2023-11-22T13:42:07;6.40;80.30
81315;DHT22;72214;52.510;5.718;2023-11-22T13:44:36;6.40;80.40
81315;DHT22;72214;52.510;5.718;2023-11-22T13:47:10;6.40;80.30
81315;DHT22;72214;52.510;5.718;2023-11-22T13:49:40;6.40;80.30
81315;DHT22;72214;52.510;5.718;2023-11-22T13:52:09;6.40;80.30
81315;DHT22;72214;52.510;5.718;2023-11-22T13:54:38;6.40;80.20
81315;DHT22;72214;52.510;5.718;2023-11-22T13:57:10;6.40;80.20
81315;DHT22;72214;52.510;5.718;2023-11-22T13:59:40;6.40;80.20
81315;DHT22;72214;52.510;5.718;2023-11-22T14:02:12;6.40;80.20
81315;DHT22;72214;52.510;5.718;2023-11-22T14:04:42;6.40;80.20
81315;DHT22;72214;52.510;5.718;2023-11-22T14:07:12;6.40;80.20
81315;DHT22;72214;52.510;5.718;2023-11-22T14:09:41;6.40;80.20
81315;DHT22;72214;52.510;5.718;2023-11-22T14:12:13;6.40;80.20
81315;DHT22;72214;52.510;5.718;2023-11-22T14:14:44;6.40;80.20
81315;DHT22;72214;52.510;5.718;2023-11-22T14:17:16;6.40;80.20
81315;DHT22;72214;52.510;5.718;2023-11-22T14:19:47;6.40;80.20
81315;DHT22;72214;52.510;5.718;2023-11-22T14:22:16;6.40;80.20
81315;DHT22;72214;52.510;5.718;2023-11-22T14:24:47;6.30;80.20
81315;DHT22;72214;52.510;5.718;2023-11-22T14:27:16;6.30;80.20
81315;DHT22;72214;52.510;5.718;2023-11-22T14:29:45;6.30;80.20
81315;DHT22;72214;52.510;5.718;2023-11-22T14:32:19;6.30;80.20
81315;DHT22;72214;52.510;5.718;2023-11-22T14:34:48;6.30;80.20
81315;DHT22;72214;52.510;5.718;2023-11-22T14:37:19;6.30;80.20
81315;DHT22;72214;52.510;5.718;2023-11-22T14:39:48;6.30;80.10
81315;DHT22;72214;52.510;5.718;2023-11-22T14:42:17;6.30;80.20
81315;DHT22;72214;52.510;5.718;2023-11-22T14:44:47;6.30;80.10
81315;DHT22;72214;52.510;5.718;2023-11-22T14:47:20;6.30;80.20
81315;DHT22;72214;52.510;5.718;2023-11-22T14:49:50;6.30;80.20
81315;DHT22;72214;52.510;5.718;2023-11-22T14:52:20;6.30;80.20
81315;DHT22;72214;52.510;5.718;2023-11-22T14:54:49;6.30;80.20
81315;DHT22;72214;52.510;5.718;2023-11-22T14:57:20;6.30;80.10
81315;DHT22;72214;52.510;5.718;2023-11-22T14:59:49;6.30;80.10
81315;DHT22;72214;52.510;5.718;2023-11-22T15:02:21;6.20;80.20
81315;DHT22;72214;52.510;5.718;2023-11-22T15:04:52;6.20;80.10
81315;DHT22;72214;52.510;5.718;2023-11-22T15:07:22;6.20;80.10
81315;DHT22;72214;52.510;5.718;2023-11-22T15:09:51;6.20;80.10
81315;DHT22;72214;52.510;5.718;2023-11-22T15:12:20;6.20;80.10
81315;DHT22;72214;52.510;5.718;2023-11-22T15:14:50;6.20;80.10
81315;DHT22;72214;52.510;5.718;2023-11-22T15:17:21;6.30;80.10
81315;DHT22;72214;52.510;5.718;2023-11-22T15:19:51;6.30;80.20
81315;DHT22;72214;52.510;5.718;2023-11-22T15:22:20;6.30;80.10
81315;DHT22;72214;52.510;5.718;2023-11-22T15:24:49;6.30;80.00
81315;DHT22;72214;52.510;5.718;2023-11-22T15:27:18;6.30;80.10
81315;DHT22;72214;52.510;5.718;2023-11-22T15:29:47;6.30;80.00
81315;DHT22;72214;52.510;5.718;2023-11-22T15:32:16;6.20;80.10
81315;DHT22;72214;52.510;5.718;2023-11-22T15:34:48;6.20;80.10
81315;DHT22;72214;52.510;5.718;2023-11-22T15:37:17;6.20;80.20
81315;DHT22;72214;52.510;5.718;2023-11-22T15:39:47;6.20;80.20
81315;DHT22;72214;52.510;5.718;2023-11-22T15:42:16;6.30;80.20
81315;DHT22;72214;52.510;5.718;2023-11-22T15:44:45;6.40;80.20
81315;DHT22;72214;52.510;5.718;2023-11-22T15:47:14;6.40;80.00
81315;DHT22;72214;52.510;5.718;2023-11-22T15:49:44;6.40;79.90
81315;DHT22;72214;52.510;5.718;2023-11-22T15:52:15;6.40;80.00
81315;DHT22;72214;52.510;5.718;2023-11-22T15:54:44;6.40;80.00
81315;DHT22;72214;52.510;5.718;2023-11-22T15:57:14;6.30;80.10
81315;DHT22;72214;52.510;5.718;2023-11-22T15:59:43;6.30;80.00
81315;DHT22;72214;52.510;5.718;2023-11-22T16:02:12;6.30;80.10
81315;DHT22;72214;52.510;5.718;2023-11-22T16:04:41;6.30;80.20